UUYY 090830Z 23005MPS 9999 SCT012 M04/M06 Q1021 R18/510341 NOSIG RMK QFE757/1009
QNH:(hPa/inHg/mmHg)1021 / 30.15 / 766
QFE:(hPa/inHg/mmHg)1008 / 29.78 / 756
Temperature-4
Dew Point-6
Visibility> 10000
Weather
Cloud CoverSCT (1200);
Transition Height3000 m./10200 ft.
Transition LevelFL110
SQUAWK